ANZ948 NZWN-NZWU
Flight info
| Callsign | ANZ948 |
|---|---|
| Flight time | 0h 40m |
| Altitude | 11000 |
| Route | KAPTI H482 WU |
| Aircraft | A20N/M-SDE2E3FGHIRWXY/LB1 |
Departure
| Time | 2026-04-25 03:00 |
|---|---|
| Airport | Wellington International Airport (NZWN) |
Arrival
| Time | 2026-04-25 03:41 |
|---|---|
| Airport | Wanganui Airport (NZWU) |
| Time | Latitude | Longitude | Altitude | Speed | Heading |
|---|---|---|---|---|---|
| 2026-04-25 02:48 | -41.32766 | 174.80976 | 29 ft | 0 kts | 142° |
| 2026-04-25 02:52 | -41.32757 | 174.80966 | 29 ft | 2 kts | 142° |
| 2026-04-25 02:52 | -41.32744 | 174.80953 | 29 ft | 2 kts | 142° |
| 2026-04-25 02:52 | -41.32729 | 174.80943 | 29 ft | 2 kts | 176° |
| 2026-04-25 02:52 | -41.32713 | 174.80947 | 29 ft | 2 kts | 214° |
| 2026-04-25 02:53 | -41.32702 | 174.80964 | 29 ft | 3 kts | 253° |
| 2026-04-25 02:53 | -41.32700 | 174.80976 | 29 ft | 0 kts | 275° |
| 2026-04-25 02:56 | -41.32699 | 174.80961 | 29 ft | 5 kts | 270° |
| 2026-04-25 02:56 | -41.32718 | 174.80866 | 29 ft | 16 kts | 250° |
| 2026-04-25 02:56 | -41.32841 | 174.80807 | 29 ft | 25 kts | 184° |
| 2026-04-25 02:56 | -41.33050 | 174.80795 | 29 ft | 34 kts | 182° |
| 2026-04-25 02:57 | -41.33290 | 174.80776 | 29 ft | 35 kts | 184° |
| 2026-04-25 02:57 | -41.33485 | 174.80752 | 29 ft | 13 kts | 203° |
| 2026-04-25 02:57 | -41.33506 | 174.80729 | 30 ft | 0 kts | 234° |
| 2026-04-25 02:58 | -41.33507 | 174.80727 | 30 ft | 1 kts | 234° |
| 2026-04-25 02:59 | -41.33525 | 174.80686 | 30 ft | 10 kts | 251° |
| 2026-04-25 02:59 | -41.33499 | 174.80634 | 30 ft | 6 kts | 4° |
| 2026-04-25 02:59 | -41.33473 | 174.80636 | 30 ft | 14 kts | 4° |
| 2026-04-25 02:59 | -41.33025 | 174.80660 | 32 ft | 120 kts | 2° |
| 2026-04-25 03:00 | -41.31943 | 174.80798 | 458 ft | 181 kts | 6° |
| 2026-04-25 03:00 | -41.30599 | 174.80946 | 1564 ft | 203 kts | 4° |
| 2026-04-25 03:00 | -41.29169 | 174.81370 | 2893 ft | 214 kts | 16° |
| 2026-04-25 03:00 | -41.27834 | 174.82226 | 4444 ft | 213 kts | 26° |
| 2026-04-25 03:01 | -41.26594 | 174.83329 | 5854 ft | 218 kts | 34° |
| 2026-04-25 03:01 | -41.25395 | 174.84618 | 7051 ft | 226 kts | 41° |
| 2026-04-25 03:01 | -41.24205 | 174.86048 | 8164 ft | 235 kts | 44° |
| 2026-04-25 03:01 | -41.23010 | 174.87568 | 9315 ft | 241 kts | 45° |
| 2026-04-25 03:02 | -41.21799 | 174.89149 | 10285 ft | 251 kts | 46° |
| 2026-04-25 03:02 | -41.20483 | 174.90893 | 10781 ft | 286 kts | 46° |
| 2026-04-25 03:02 | -41.18942 | 174.92827 | 10953 ft | 316 kts | 38° |
| 2026-04-25 03:02 | -41.17008 | 174.94116 | 10992 ft | 309 kts | 18° |
| 2026-04-25 03:03 | -41.14961 | 174.94905 | 10993 ft | 305 kts | 14° |
| 2026-04-25 03:03 | -41.12909 | 174.95602 | 11004 ft | 304 kts | 14° |
| 2026-04-25 03:03 | -41.10859 | 174.96295 | 10996 ft | 304 kts | 14° |
| 2026-04-25 03:03 | -41.08807 | 174.96977 | 10997 ft | 304 kts | 11° |
| 2026-04-25 03:04 | -41.06716 | 174.97325 | 11008 ft | 303 kts | 3° |
| 2026-04-25 03:04 | -41.04613 | 174.97466 | 11001 ft | 303 kts | 1° |
| 2026-04-25 03:04 | -41.02504 | 174.97570 | 10999 ft | 303 kts | 1° |
| 2026-04-25 03:05 | -40.98318 | 174.97777 | 11004 ft | 303 kts | 1° |
| 2026-04-25 03:05 | -40.96214 | 174.97887 | 11007 ft | 303 kts | 1° |
| 2026-04-25 03:05 | -40.94110 | 174.97998 | 11002 ft | 303 kts | 1° |
| 2026-04-25 03:05 | -40.92008 | 174.98111 | 11013 ft | 302 kts | 1° |
| 2026-04-25 03:06 | -40.89904 | 174.98224 | 11004 ft | 302 kts | 1° |
| 2026-04-25 03:06 | -40.87803 | 174.98338 | 11010 ft | 302 kts | 1° |
| 2026-04-25 03:06 | -40.85700 | 174.98451 | 11007 ft | 302 kts | 1° |
| 2026-04-25 03:06 | -40.83601 | 174.98564 | 11008 ft | 302 kts | 1° |
| 2026-04-25 03:07 | -40.81501 | 174.98677 | 11008 ft | 302 kts | 1° |
| 2026-04-25 03:07 | -40.79403 | 174.98791 | 11008 ft | 302 kts | 1° |
| 2026-04-25 03:07 | -40.77303 | 174.98904 | 11017 ft | 302 kts | 1° |
| 2026-04-25 03:07 | -40.75207 | 174.99017 | 11015 ft | 302 kts | 1° |
| 2026-04-25 03:08 | -40.73111 | 174.99130 | 11007 ft | 302 kts | 1° |
| 2026-04-25 03:08 | -40.71013 | 174.99243 | 11010 ft | 301 kts | 1° |
| 2026-04-25 03:08 | -40.68919 | 174.99356 | 11011 ft | 301 kts | 1° |
| 2026-04-25 03:08 | -40.66821 | 174.99469 | 11005 ft | 304 kts | 1° |
| 2026-04-25 03:09 | -40.64638 | 174.99586 | 10780 ft | 320 kts | 1° |
| 2026-04-25 03:09 | -40.63176 | 174.99726 | 10643 ft | 318 kts | 6° |
| 2026-04-25 03:09 | -40.60971 | 175.00150 | 10420 ft | 320 kts | 9° |
| 2026-04-25 03:09 | -40.58821 | 175.00639 | 10281 ft | 307 kts | 9° |
| 2026-04-25 03:10 | -40.56762 | 175.01118 | 10153 ft | 295 kts | 9° |
| 2026-04-25 03:10 | -40.54767 | 175.01582 | 9864 ft | 289 kts | 9° |
| 2026-04-25 03:10 | -40.52790 | 175.02039 | 9462 ft | 288 kts | 9° |
| 2026-04-25 03:10 | -40.50828 | 175.02490 | 9100 ft | 285 kts | 9° |
| 2026-04-25 03:11 | -40.48887 | 175.02936 | 8737 ft | 282 kts | 9° |
| 2026-04-25 03:11 | -40.46963 | 175.03376 | 8381 ft | 279 kts | 9° |
| 2026-04-25 03:11 | -40.45056 | 175.03813 | 8026 ft | 277 kts | 9° |
| 2026-04-25 03:11 | -40.43168 | 175.04244 | 7673 ft | 274 kts | 9° |
| 2026-04-25 03:12 | -40.41297 | 175.04672 | 7329 ft | 272 kts | 8° |
| 2026-04-25 03:12 | -40.39439 | 175.05096 | 6980 ft | 270 kts | 8° |
| 2026-04-25 03:12 | -40.37597 | 175.05516 | 6637 ft | 267 kts | 8° |
| 2026-04-25 03:12 | -40.35773 | 175.05932 | 6275 ft | 265 kts | 8° |
| 2026-04-25 03:13 | -40.33997 | 175.06338 | 6083 ft | 253 kts | 8° |
| 2026-04-25 03:13 | -40.32306 | 175.06724 | 5949 ft | 240 kts | 8° |
| 2026-04-25 03:13 | -40.30686 | 175.07093 | 5712 ft | 235 kts | 8° |
| 2026-04-25 03:13 | -40.29079 | 175.07458 | 5382 ft | 234 kts | 8° |
| 2026-04-25 03:14 | -40.27482 | 175.07820 | 5057 ft | 232 kts | 8° |
| 2026-04-25 03:14 | -40.25897 | 175.08180 | 4713 ft | 230 kts | 8° |
| 2026-04-25 03:14 | -40.24329 | 175.08535 | 4393 ft | 227 kts | 8° |
| 2026-04-25 03:14 | -40.22777 | 175.08887 | 3914 ft | 226 kts | 8° |
| 2026-04-25 03:15 | -40.21228 | 175.09239 | 3584 ft | 224 kts | 8° |
| 2026-04-25 03:15 | -40.19741 | 175.09577 | 3424 ft | 210 kts | 8° |
| 2026-04-25 03:15 | -40.18344 | 175.09895 | 3290 ft | 197 kts | 8° |
| 2026-04-25 03:15 | -40.17038 | 175.10192 | 3181 ft | 184 kts | 8° |
| 2026-04-25 03:16 | -40.15816 | 175.10470 | 3091 ft | 171 kts | 8° |
| 2026-04-25 03:16 | -40.14681 | 175.10728 | 2970 ft | 160 kts | 8° |
| 2026-04-25 03:16 | -40.13602 | 175.10971 | 2744 ft | 160 kts | 8° |
| 2026-04-25 03:16 | -40.12461 | 175.11227 | 2269 ft | 173 kts | 8° |
| 2026-04-25 03:17 | -40.11277 | 175.11494 | 2030 ft | 169 kts | 8° |
| 2026-04-25 03:17 | -40.10178 | 175.11878 | 2007 ft | 161 kts | 20° |
| 2026-04-25 03:17 | -40.09205 | 175.12597 | 2010 ft | 161 kts | 32° |
| 2026-04-25 03:17 | -40.08292 | 175.13456 | 2006 ft | 161 kts | 34° |
| 2026-04-25 03:18 | -40.07458 | 175.14278 | 2004 ft | 141 kts | 35° |
| 2026-04-25 03:18 | -40.06695 | 175.15028 | 2018 ft | 134 kts | 32° |
| 2026-04-25 03:18 | -40.05883 | 175.15565 | 2033 ft | 127 kts | 14° |
| 2026-04-25 03:18 | -40.05021 | 175.15699 | 2015 ft | 124 kts | 354° |
| 2026-04-25 03:19 | -40.04186 | 175.15428 | 2010 ft | 125 kts | 334° |
| 2026-04-25 03:19 | -40.03477 | 175.14784 | 1989 ft | 124 kts | 313° |
| 2026-04-25 03:19 | -40.02934 | 175.13907 | 2007 ft | 124 kts | 307° |
| 2026-04-25 03:19 | -40.02422 | 175.13011 | 1947 ft | 121 kts | 306° |
| 2026-04-25 03:20 | -40.01922 | 175.12134 | 1823 ft | 120 kts | 306° |
| 2026-04-25 03:20 | -40.01424 | 175.11265 | 1616 ft | 119 kts | 306° |
| 2026-04-25 03:20 | -40.00928 | 175.10401 | 1454 ft | 119 kts | 306° |
| 2026-04-25 03:20 | -40.00431 | 175.09537 | 1305 ft | 119 kts | 307° |
| 2026-04-25 03:21 | -39.99934 | 175.08672 | 1135 ft | 119 kts | 306° |
| 2026-04-25 03:21 | -39.99435 | 175.07806 | 997 ft | 120 kts | 306° |
| 2026-04-25 03:21 | -39.98933 | 175.06936 | 828 ft | 120 kts | 306° |
| 2026-04-25 03:21 | -39.98429 | 175.06062 | 675 ft | 121 kts | 306° |
| 2026-04-25 03:22 | -39.97922 | 175.05185 | 511 ft | 121 kts | 306° |
| 2026-04-25 03:22 | -39.97416 | 175.04306 | 352 ft | 122 kts | 305° |
| 2026-04-25 03:22 | -39.96910 | 175.03425 | 211 ft | 121 kts | 305° |
| 2026-04-25 03:22 | -39.96386 | 175.02504 | 148 ft | 149 kts | 305° |
| 2026-04-25 03:23 | -39.95654 | 175.01200 | 753 ft | 196 kts | 306° |
| 2026-04-25 03:23 | -39.94789 | 174.99706 | 1969 ft | 219 kts | 307° |
| 2026-04-25 03:23 | -39.93802 | 174.98016 | 2702 ft | 247 kts | 307° |
| 2026-04-25 03:23 | -39.92747 | 174.96206 | 2966 ft | 252 kts | 307° |
| 2026-04-25 03:24 | -39.91686 | 174.94379 | 3001 ft | 253 kts | 307° |
| 2026-04-25 03:24 | -39.90621 | 174.92546 | 3009 ft | 254 kts | 307° |
| 2026-04-25 03:24 | -39.89572 | 174.90737 | 3004 ft | 254 kts | 307° |
| 2026-04-25 03:24 | -39.88507 | 174.88902 | 3012 ft | 254 kts | 307° |
| 2026-04-25 03:25 | -39.87444 | 174.87068 | 3016 ft | 254 kts | 307° |
| 2026-04-25 03:25 | -39.86532 | 174.85106 | 3022 ft | 254 kts | 293° |
| 2026-04-25 03:25 | -39.85967 | 174.82929 | 3009 ft | 254 kts | 286° |
| 2026-04-25 03:25 | -39.85506 | 174.80708 | 3010 ft | 254 kts | 285° |
| 2026-04-25 03:26 | -39.85060 | 174.78482 | 3014 ft | 255 kts | 285° |
| 2026-04-25 03:26 | -39.84611 | 174.76258 | 3010 ft | 254 kts | 285° |
| 2026-04-25 03:26 | -39.84308 | 174.73998 | 3007 ft | 255 kts | 272° |
| 2026-04-25 03:26 | -39.84652 | 174.71753 | 3011 ft | 257 kts | 246° |
| 2026-04-25 03:27 | -39.85789 | 174.69972 | 3023 ft | 260 kts | 217° |
| 2026-04-25 03:27 | -39.87467 | 174.69113 | 3012 ft | 264 kts | 187° |
| 2026-04-25 03:27 | -39.89276 | 174.69420 | 3017 ft | 266 kts | 159° |
| 2026-04-25 03:27 | -39.90772 | 174.70816 | 3009 ft | 267 kts | 130° |
| 2026-04-25 03:28 | -39.91527 | 174.72985 | 3013 ft | 266 kts | 96° |
| 2026-04-25 03:28 | -39.91230 | 174.75312 | 3014 ft | 262 kts | 65° |
| 2026-04-25 03:28 | -39.90380 | 174.77415 | 3009 ft | 263 kts | 59° |
| 2026-04-25 03:28 | -39.89497 | 174.79496 | 3015 ft | 263 kts | 60° |
| 2026-04-25 03:29 | -39.88660 | 174.81616 | 3009 ft | 263 kts | 62° |
| 2026-04-25 03:29 | -39.87867 | 174.83764 | 3012 ft | 264 kts | 64° |
| 2026-04-25 03:29 | -39.87429 | 174.86069 | 3004 ft | 265 kts | 89° |
| 2026-04-25 03:29 | -39.87856 | 174.88387 | 3016 ft | 267 kts | 117° |
| 2026-04-25 03:30 | -39.88949 | 174.90327 | 3012 ft | 267 kts | 131° |
| 2026-04-25 03:30 | -39.90200 | 174.92070 | 3010 ft | 267 kts | 134° |
| 2026-04-25 03:30 | -39.91431 | 174.93884 | 3013 ft | 267 kts | 128° |
| 2026-04-25 03:30 | -39.92559 | 174.95805 | 3011 ft | 267 kts | 127° |
| 2026-04-25 03:31 | -39.93669 | 174.97746 | 3022 ft | 267 kts | 126° |
| 2026-04-25 03:31 | -39.94779 | 174.99688 | 3015 ft | 267 kts | 127° |
| 2026-04-25 03:31 | -39.95889 | 175.01623 | 3015 ft | 267 kts | 127° |
| 2026-04-25 03:31 | -39.97000 | 175.03561 | 3010 ft | 267 kts | 127° |
| 2026-04-25 03:32 | -39.98113 | 175.05497 | 3007 ft | 266 kts | 127° |
| 2026-04-25 03:32 | -39.99205 | 175.07390 | 2993 ft | 248 kts | 127° |
| 2026-04-25 03:32 | -40.00184 | 175.09088 | 3017 ft | 226 kts | 127° |
| 2026-04-25 03:32 | -40.01083 | 175.10651 | 3005 ft | 206 kts | 127° |
| 2026-04-25 03:33 | -40.01906 | 175.12082 | 2992 ft | 188 kts | 127° |
| 2026-04-25 03:33 | -40.02665 | 175.13401 | 2988 ft | 177 kts | 127° |
| 2026-04-25 03:33 | -40.03399 | 175.14679 | 3008 ft | 176 kts | 127° |
| 2026-04-25 03:33 | -40.04132 | 175.15953 | 3010 ft | 176 kts | 127° |
| 2026-04-25 03:34 | -40.04901 | 175.17190 | 3013 ft | 175 kts | 135° |
| 2026-04-25 03:34 | -40.05857 | 175.18052 | 2987 ft | 160 kts | 159° |
| 2026-04-25 03:34 | -40.06884 | 175.18319 | 2964 ft | 144 kts | 183° |
| 2026-04-25 03:34 | -40.07840 | 175.18076 | 2816 ft | 138 kts | 205° |
| 2026-04-25 03:35 | -40.08642 | 175.17407 | 2632 ft | 136 kts | 227° |
| 2026-04-25 03:35 | -40.09195 | 175.16431 | 2487 ft | 133 kts | 246° |
| 2026-04-25 03:35 | -40.09456 | 175.15295 | 2232 ft | 131 kts | 265° |
| 2026-04-25 03:35 | -40.09405 | 175.14119 | 1994 ft | 129 kts | 284° |
| 2026-04-25 03:36 | -40.09062 | 175.13047 | 1719 ft | 128 kts | 303° |
| 2026-04-25 03:36 | -40.08471 | 175.12190 | 1429 ft | 128 kts | 321° |
| 2026-04-25 03:36 | -40.07719 | 175.11653 | 1371 ft | 121 kts | 339° |
| 2026-04-25 03:36 | -40.06903 | 175.11405 | 1350 ft | 120 kts | 348° |
| 2026-04-25 03:37 | -40.06077 | 175.11221 | 1273 ft | 121 kts | 349° |
| 2026-04-25 03:37 | -40.05249 | 175.11038 | 1292 ft | 121 kts | 349° |
| 2026-04-25 03:37 | -40.04419 | 175.10853 | 1311 ft | 121 kts | 349° |
| 2026-04-25 03:37 | -40.03591 | 175.10669 | 1306 ft | 121 kts | 349° |
| 2026-04-25 03:38 | -40.02764 | 175.10485 | 1309 ft | 121 kts | 348° |
| 2026-04-25 03:38 | -40.01935 | 175.10299 | 1301 ft | 121 kts | 349° |
| 2026-04-25 03:38 | -40.01120 | 175.10036 | 1307 ft | 121 kts | 337° |
| 2026-04-25 03:38 | -40.00422 | 175.09449 | 1307 ft | 120 kts | 315° |
| 2026-04-25 03:39 | -39.99894 | 175.08613 | 1304 ft | 121 kts | 307° |
| 2026-04-25 03:39 | -39.99385 | 175.07730 | 1134 ft | 122 kts | 306° |
| 2026-04-25 03:39 | -39.98874 | 175.06841 | 905 ft | 123 kts | 306° |
| 2026-04-25 03:39 | -39.98363 | 175.05952 | 645 ft | 123 kts | 306° |
| 2026-04-25 03:40 | -39.97851 | 175.05063 | 385 ft | 122 kts | 306° |
| 2026-04-25 03:40 | -39.97343 | 175.04178 | 236 ft | 122 kts | 305° |
| 2026-04-25 03:40 | -39.96840 | 175.03302 | 67 ft | 122 kts | 305° |
| 2026-04-25 03:40 | -39.96396 | 175.02522 | 37 ft | 75 kts | 306° |
| 2026-04-25 03:41 | -39.96228 | 175.02319 | 34 ft | 7 kts | 29° |
| 2026-04-25 03:41 | -39.96198 | 175.02345 | 35 ft | 0 kts | 35° |